sensor_id;sensor_type;location;lat;lon;timestamp;temperature;humidity
7686;DHT22;3885;51.474;-2.576;2023-04-01T00:01:04;10.60;99.90
7686;DHT22;3885;51.474;-2.576;2023-04-01T00:03:31;10.60;99.90
7686;DHT22;3885;51.474;-2.576;2023-04-01T00:05:59;10.60;99.90
7686;DHT22;3885;51.474;-2.576;2023-04-01T00:10:55;10.60;99.90
7686;DHT22;3885;51.474;-2.576;2023-04-01T00:13:24;10.60;99.90
7686;DHT22;3885;51.474;-2.576;2023-04-01T00:15:52;10.50;99.90
7686;DHT22;3885;51.474;-2.576;2023-04-01T00:18:19;10.60;99.90
7686;DHT22;3885;51.474;-2.576;2023-04-01T00:20:47;10.60;99.90
7686;DHT22;3885;51.474;-2.576;2023-04-01T00:23:15;10.60;99.90
7686;DHT22;3885;51.474;-2.576;2023-04-01T00:25:43;10.60;99.90
7686;DHT22;3885;51.474;-2.576;2023-04-01T00:28:12;10.60;99.90
7686;DHT22;3885;51.474;-2.576;2023-04-01T00:30:39;10.60;99.90
7686;DHT22;3885;51.474;-2.576;2023-04-01T00:33:06;10.50;99.90
7686;DHT22;3885;51.474;-2.576;2023-04-01T00:35:33;10.60;99.90
7686;DHT22;3885;51.474;-2.576;2023-04-01T00:38:00;10.50;99.90
7686;DHT22;3885;51.474;-2.576;2023-04-01T00:40:29;10.50;99.90
7686;DHT22;3885;51.474;-2.576;2023-04-01T00:42:56;10.50;99.90
7686;DHT22;3885;51.474;-2.576;2023-04-01T00:45:30;10.40;99.90
7686;DHT22;3885;51.474;-2.576;2023-04-01T00:47:59;10.40;99.90
7686;DHT22;3885;51.474;-2.576;2023-04-01T00:50:28;10.40;99.90
7686;DHT22;3885;51.474;-2.576;2023-04-01T00:52:58;10.40;99.90
7686;DHT22;3885;51.474;-2.576;2023-04-01T00:55:27;10.40;99.90
7686;DHT22;3885;51.474;-2.576;2023-04-01T01:00:23;10.40;99.90
7686;DHT22;3885;51.474;-2.576;2023-04-01T01:02:53;10.40;99.90
7686;DHT22;3885;51.474;-2.576;2023-04-01T01:05:26;10.40;99.90
7686;DHT22;3885;51.474;-2.576;2023-04-01T01:08:01;10.40;99.90
7686;DHT22;3885;51.474;-2.576;2023-04-01T01:10:32;10.40;99.90
7686;DHT22;3885;51.474;-2.576;2023-04-01T01:13:07;10.50;99.90
7686;DHT22;3885;51.474;-2.576;2023-04-01T01:15:41;10.50;99.90
7686;DHT22;3885;51.474;-2.576;2023-04-01T01:18:18;10.50;99.90
7686;DHT22;3885;51.474;-2.576;2023-04-01T01:21:10;10.40;99.90
7686;DHT22;3885;51.474;-2.576;2023-04-01T01:24:08;10.40;99.90
7686;DHT22;3885;51.474;-2.576;2023-04-01T01:26:52;10.40;99.90
7686;DHT22;3885;51.474;-2.576;2023-04-01T01:29:42;10.40;99.90
7686;DHT22;3885;51.474;-2.576;2023-04-01T01:32:24;10.30;99.90
7686;DHT22;3885;51.474;-2.576;2023-04-01T01:37:27;10.30;99.90
7686;DHT22;3885;51.474;-2.576;2023-04-01T01:40:02;10.30;99.90
7686;DHT22;3885;51.474;-2.576;2023-04-01T01:42:31;10.40;99.90
7686;DHT22;3885;51.474;-2.576;2023-04-01T01:45:00;10.30;99.90
7686;DHT22;3885;51.474;-2.576;2023-04-01T01:47:28;10.30;99.90
7686;DHT22;3885;51.474;-2.576;2023-04-01T01:49:56;10.30;99.90
7686;DHT22;3885;51.474;-2.576;2023-04-01T01:52:24;10.30;99.90
7686;DHT22;3885;51.474;-2.576;2023-04-01T01:54:54;10.30;99.90
7686;DHT22;3885;51.474;-2.576;2023-04-01T01:59:54;10.30;99.90
7686;DHT22;3885;51.474;-2.576;2023-04-01T02:02:22;10.30;99.90
7686;DHT22;3885;51.474;-2.576;2023-04-01T02:04:51;10.30;99.90
7686;DHT22;3885;51.474;-2.576;2023-04-01T02:07:23;10.30;99.90
7686;DHT22;3885;51.474;-2.576;2023-04-01T02:12:22;10.30;99.90
7686;DHT22;3885;51.474;-2.576;2023-04-01T02:14:52;10.10;99.90
7686;DHT22;3885;51.474;-2.576;2023-04-01T02:17:22;10.20;99.90
7686;DHT22;3885;51.474;-2.576;2023-04-01T02:19:53;10.20;99.90
7686;DHT22;3885;51.474;-2.576;2023-04-01T02:22:23;10.20;99.90
7686;DHT22;3885;51.474;-2.576;2023-04-01T02:24:54;10.20;99.90
7686;DHT22;3885;51.474;-2.576;2023-04-01T02:27:24;10.20;99.90
7686;DHT22;3885;51.474;-2.576;2023-04-01T02:29:51;10.20;99.90
7686;DHT22;3885;51.474;-2.576;2023-04-01T02:32:19;10.20;99.90
7686;DHT22;3885;51.474;-2.576;2023-04-01T02:37:14;10.20;99.90
7686;DHT22;3885;51.474;-2.576;2023-04-01T02:39:41;10.20;99.90
7686;DHT22;3885;51.474;-2.576;2023-04-01T02:42:10;10.20;99.90
7686;DHT22;3885;51.474;-2.576;2023-04-01T02:44:37;10.20;99.90
7686;DHT22;3885;51.474;-2.576;2023-04-01T02:47:04;10.10;99.90
7686;DHT22;3885;51.474;-2.576;2023-04-01T02:49:31;10.10;99.90
7686;DHT22;3885;51.474;-2.576;2023-04-01T02:51:58;10.10;99.90
7686;DHT22;3885;51.474;-2.576;2023-04-01T02:59:20;10.10;99.90
7686;DHT22;3885;51.474;-2.576;2023-04-01T03:01:47;10.10;99.90
7686;DHT22;3885;51.474;-2.576;2023-04-01T03:04:14;10.00;99.90
7686;DHT22;3885;51.474;-2.576;2023-04-01T03:06:41;10.00;99.90
7686;DHT22;3885;51.474;-2.576;2023-04-01T03:09:08;10.00;99.90
7686;DHT22;3885;51.474;-2.576;2023-04-01T03:11:36;10.00;99.90
7686;DHT22;3885;51.474;-2.576;2023-04-01T03:14:03;10.00;99.90
7686;DHT22;3885;51.474;-2.576;2023-04-01T03:16:31;10.00;99.90
7686;DHT22;3885;51.474;-2.576;2023-04-01T03:18:58;10.00;99.90
7686;DHT22;3885;51.474;-2.576;2023-04-01T03:21:27;10.00;99.90
7686;DHT22;3885;51.474;-2.576;2023-04-01T03:23:54;10.00;99.90
7686;DHT22;3885;51.474;-2.576;2023-04-01T03:26:21;10.00;99.90
7686;DHT22;3885;51.474;-2.576;2023-04-01T03:28:48;10.00;99.90
7686;DHT22;3885;51.474;-2.576;2023-04-01T03:31:15;10.00;99.90
7686;DHT22;3885;51.474;-2.576;2023-04-01T03:33:44;10.00;99.90
7686;DHT22;3885;51.474;-2.576;2023-04-01T03:36:11;9.90;99.90
7686;DHT22;3885;51.474;-2.576;2023-04-01T03:38:39;9.90;99.90
7686;DHT22;3885;51.474;-2.576;2023-04-01T03:41:06;10.00;99.90
7686;DHT22;3885;51.474;-2.576;2023-04-01T03:46:01;10.00;99.90
7686;DHT22;3885;51.474;-2.576;2023-04-01T03:48:27;9.90;99.90
7686;DHT22;3885;51.474;-2.576;2023-04-01T03:50:56;9.90;99.90
7686;DHT22;3885;51.474;-2.576;2023-04-01T03:53:23;9.90;99.90
7686;DHT22;3885;51.474;-2.576;2023-04-01T03:55:50;9.90;99.90
7686;DHT22;3885;51.474;-2.576;2023-04-01T04:00:45;9.90;99.90
7686;DHT22;3885;51.474;-2.576;2023-04-01T04:03:12;9.90;99.90
7686;DHT22;3885;51.474;-2.576;2023-04-01T04:05:46;9.90;99.90
7686;DHT22;3885;51.474;-2.576;2023-04-01T04:08:15;9.90;99.90
7686;DHT22;3885;51.474;-2.576;2023-04-01T04:10:42;9.90;99.90
7686;DHT22;3885;51.474;-2.576;2023-04-01T04:13:09;9.90;99.90
7686;DHT22;3885;51.474;-2.576;2023-04-01T04:15:36;9.90;99.90
7686;DHT22;3885;51.474;-2.576;2023-04-01T04:18:03;9.90;99.90
7686;DHT22;3885;51.474;-2.576;2023-04-01T04:20:30;9.90;99.90
7686;DHT22;3885;51.474;-2.576;2023-04-01T04:22:57;9.90;99.90
7686;DHT22;3885;51.474;-2.576;2023-04-01T04:30:20;9.90;99.90
7686;DHT22;3885;51.474;-2.576;2023-04-01T04:32:47;9.90;99.90
7686;DHT22;3885;51.474;-2.576;2023-04-01T04:35:14;10.00;99.90
7686;DHT22;3885;51.474;-2.576;2023-04-01T04:37:41;9.90;99.90
7686;DHT22;3885;51.474;-2.576;2023-04-01T04:40:08;9.90;99.90
7686;DHT22;3885;51.474;-2.576;2023-04-01T04:42:36;9.90;99.90
7686;DHT22;3885;51.474;-2.576;2023-04-01T04:45:04;9.90;99.90
7686;DHT22;3885;51.474;-2.576;2023-04-01T04:47:31;9.90;99.90
7686;DHT22;3885;51.474;-2.576;2023-04-01T04:49:58;9.90;99.90
7686;DHT22;3885;51.474;-2.576;2023-04-01T04:52:25;9.90;99.90
7686;DHT22;3885;51.474;-2.576;2023-04-01T04:54:52;9.90;99.90
7686;DHT22;3885;51.474;-2.576;2023-04-01T04:57:19;9.80;99.90
7686;DHT22;3885;51.474;-2.576;2023-04-01T04:59:47;9.90;99.90
7686;DHT22;3885;51.474;-2.576;2023-04-01T05:02:14;9.90;99.90
7686;DHT22;3885;51.474;-2.576;2023-04-01T05:04:41;9.90;99.90
7686;DHT22;3885;51.474;-2.576;2023-04-01T05:07:08;9.90;99.90
7686;DHT22;3885;51.474;-2.576;2023-04-01T05:09:35;9.80;99.90
7686;DHT22;3885;51.474;-2.576;2023-04-01T05:12:02;9.90;99.90
7686;DHT22;3885;51.474;-2.576;2023-04-01T05:14:29;9.90;99.90
7686;DHT22;3885;51.474;-2.576;2023-04-01T05:16:58;9.80;99.90
7686;DHT22;3885;51.474;-2.576;2023-04-01T05:19:24;9.80;99.90
7686;DHT22;3885;51.474;-2.576;2023-04-01T05:21:51;9.80;99.90
7686;DHT22;3885;51.474;-2.576;2023-04-01T05:26:46;9.80;99.90
7686;DHT22;3885;51.474;-2.576;2023-04-01T05:29:13;9.90;99.90
7686;DHT22;3885;51.474;-2.576;2023-04-01T05:34:09;9.80;99.90
7686;DHT22;3885;51.474;-2.576;2023-04-01T05:36:36;9.90;99.90
7686;DHT22;3885;51.474;-2.576;2023-04-01T05:39:03;9.80;99.90
7686;DHT22;3885;51.474;-2.576;2023-04-01T05:41:30;9.80;99.90
7686;DHT22;3885;51.474;-2.576;2023-04-01T05:43:57;9.90;99.90
7686;DHT22;3885;51.474;-2.576;2023-04-01T05:46:23;9.80;99.90
7686;DHT22;3885;51.474;-2.576;2023-04-01T05:48:50;9.80;99.90
7686;DHT22;3885;51.474;-2.576;2023-04-01T05:51:19;9.80;99.90
7686;DHT22;3885;51.474;-2.576;2023-04-01T05:56:13;9.80;99.90
7686;DHT22;3885;51.474;-2.576;2023-04-01T05:58:40;9.90;99.90
7686;DHT22;3885;51.474;-2.576;2023-04-01T06:01:09;9.90;99.90
7686;DHT22;3885;51.474;-2.576;2023-04-01T06:06:04;9.90;99.90
7686;DHT22;3885;51.474;-2.576;2023-04-01T06:08:33;9.80;99.90
7686;DHT22;3885;51.474;-2.576;2023-04-01T06:16:36;9.80;99.90
7686;DHT22;3885;51.474;-2.576;2023-04-01T06:19:18;9.80;99.90
7686;DHT22;3885;51.474;-2.576;2023-04-01T06:25:08;9.80;99.90
7686;DHT22;3885;51.474;-2.576;2023-04-01T06:27:54;9.70;99.90
7686;DHT22;3885;51.474;-2.576;2023-04-01T06:30:38;9.80;99.90
7686;DHT22;3885;51.474;-2.576;2023-04-01T06:36:24;9.80;99.90
7686;DHT22;3885;51.474;-2.576;2023-04-01T06:39:29;9.80;99.90
7686;DHT22;3885;51.474;-2.576;2023-04-01T06:42:13;9.80;99.90
7686;DHT22;3885;51.474;-2.576;2023-04-01T06:44:49;9.80;99.90
7686;DHT22;3885;51.474;-2.576;2023-04-01T06:47:34;9.80;99.90
7686;DHT22;3885;51.474;-2.576;2023-04-01T06:50:07;9.80;99.90
7686;DHT22;3885;51.474;-2.576;2023-04-01T06:52:45;9.80;99.90
7686;DHT22;3885;51.474;-2.576;2023-04-01T06:55:24;9.80;99.90
7686;DHT22;3885;51.474;-2.576;2023-04-01T06:57:55;9.80;99.90
7686;DHT22;3885;51.474;-2.576;2023-04-01T07:00:27;9.80;99.90
7686;DHT22;3885;51.474;-2.576;2023-04-01T07:03:02;9.80;99.90
7686;DHT22;3885;51.474;-2.576;2023-04-01T07:08:01;9.80;99.90
7686;DHT22;3885;51.474;-2.576;2023-04-01T07:10:34;9.80;99.90
7686;DHT22;3885;51.474;-2.576;2023-04-01T07:13:05;9.90;99.90
7686;DHT22;3885;51.474;-2.576;2023-04-01T07:15:37;9.90;99.90
7686;DHT22;3885;51.474;-2.576;2023-04-01T07:18:09;9.80;99.90
7686;DHT22;3885;51.474;-2.576;2023-04-01T07:20:39;9.90;99.90
7686;DHT22;3885;51.474;-2.576;2023-04-01T07:23:10;9.90;99.90
7686;DHT22;3885;51.474;-2.576;2023-04-01T07:25:41;9.90;99.90
7686;DHT22;3885;51.474;-2.576;2023-04-01T07:28:14;9.90;99.90
7686;DHT22;3885;51.474;-2.576;2023-04-01T07:30:52;10.00;99.90
7686;DHT22;3885;51.474;-2.576;2023-04-01T07:33:24;10.10;99.90
7686;DHT22;3885;51.474;-2.576;2023-04-01T07:35:56;10.10;99.90
7686;DHT22;3885;51.474;-2.576;2023-04-01T07:38:32;10.10;99.90
7686;DHT22;3885;51.474;-2.576;2023-04-01T07:41:06;10.10;99.90
7686;DHT22;3885;51.474;-2.576;2023-04-01T07:46:20;10.10;99.90
7686;DHT22;3885;51.474;-2.576;2023-04-01T07:48:55;10.10;99.90
7686;DHT22;3885;51.474;-2.576;2023-04-01T07:51:29;10.20;99.90
7686;DHT22;3885;51.474;-2.576;2023-04-01T07:54:04;10.20;99.90
7686;DHT22;3885;51.474;-2.576;2023-04-01T07:56:40;10.30;99.90
7686;DHT22;3885;51.474;-2.576;2023-04-01T08:01:46;10.40;99.90
7686;DHT22;3885;51.474;-2.576;2023-04-01T08:04:25;10.50;99.90
7686;DHT22;3885;51.474;-2.576;2023-04-01T08:07:01;10.40;99.90
7686;DHT22;3885;51.474;-2.576;2023-04-01T08:09:42;10.40;99.90
7686;DHT22;3885;51.474;-2.576;2023-04-01T08:12:20;10.40;99.90
7686;DHT22;3885;51.474;-2.576;2023-04-01T08:14:56;10.50;99.90
7686;DHT22;3885;51.474;-2.576;2023-04-01T08:20:10;10.50;99.90
7686;DHT22;3885;51.474;-2.576;2023-04-01T08:22:42;10.60;99.90
7686;DHT22;3885;51.474;-2.576;2023-04-01T08:25:17;10.60;99.90
7686;DHT22;3885;51.474;-2.576;2023-04-01T08:30:19;10.40;99.90
7686;DHT22;3885;51.474;-2.576;2023-04-01T08:32:50;10.40;99.90
7686;DHT22;3885;51.474;-2.576;2023-04-01T08:35:26;10.40;99.90
7686;DHT22;3885;51.474;-2.576;2023-04-01T08:37:57;10.30;99.90
7686;DHT22;3885;51.474;-2.576;2023-04-01T08:49:52;10.40;99.90
7686;DHT22;3885;51.474;-2.576;2023-04-01T08:52:30;10.40;99.90
7686;DHT22;3885;51.474;-2.576;2023-04-01T09:00:49;10.50;99.90
7686;DHT22;3885;51.474;-2.576;2023-04-01T09:03:46;10.40;99.90
7686;DHT22;3885;51.474;-2.576;2023-04-01T09:06:29;10.40;99.90
7686;DHT22;3885;51.474;-2.576;2023-04-01T09:09:29;10.50;99.90
7686;DHT22;3885;51.474;-2.576;2023-04-01T09:12:27;10.60;99.90
7686;DHT22;3885;51.474;-2.576;2023-04-01T09:23:34;11.00;99.90
7686;DHT22;3885;51.474;-2.576;2023-04-01T09:26:13;11.10;99.90
7686;DHT22;3885;51.474;-2.576;2023-04-01T09:28:50;11.10;99.90
7686;DHT22;3885;51.474;-2.576;2023-04-01T09:31:31;11.30;99.90
7686;DHT22;3885;51.474;-2.576;2023-04-01T09:34:41;11.30;99.90
7686;DHT22;3885;51.474;-2.576;2023-04-01T09:37:32;11.40;99.90
7686;DHT22;3885;51.474;-2.576;2023-04-01T09:40:18;11.40;99.90
7686;DHT22;3885;51.474;-2.576;2023-04-01T09:45:38;11.40;99.90
7686;DHT22;3885;51.474;-2.576;2023-04-01T09:48:20;11.40;99.90
7686;DHT22;3885;51.474;-2.576;2023-04-01T09:50:57;11.40;99.90
7686;DHT22;3885;51.474;-2.576;2023-04-01T09:53:41;11.40;99.90
7686;DHT22;3885;51.474;-2.576;2023-04-01T09:59:21;11.50;99.90
7686;DHT22;3885;51.474;-2.576;2023-04-01T10:02:27;11.30;99.90
7686;DHT22;3885;51.474;-2.576;2023-04-01T10:08:25;11.10;99.90
7686;DHT22;3885;51.474;-2.576;2023-04-01T10:11:16;11.10;99.90
7686;DHT22;3885;51.474;-2.576;2023-04-01T10:14:18;11.00;99.90
7686;DHT22;3885;51.474;-2.576;2023-04-01T10:20:02;11.10;99.90
7686;DHT22;3885;51.474;-2.576;2023-04-01T10:31:41;11.00;99.90
7686;DHT22;3885;51.474;-2.576;2023-04-01T10:34:29;11.00;99.90
7686;DHT22;3885;51.474;-2.576;2023-04-01T10:37:14;11.20;99.90
7686;DHT22;3885;51.474;-2.576;2023-04-01T10:40:22;11.30;99.90
7686;DHT22;3885;51.474;-2.576;2023-04-01T10:46:26;11.30;99.90
7686;DHT22;3885;51.474;-2.576;2023-04-01T10:55:01;11.50;99.90
7686;DHT22;3885;51.474;-2.576;2023-04-01T10:57:55;11.80;99.90
7686;DHT22;3885;51.474;-2.576;2023-04-01T11:00:57;11.80;99.90
7686;DHT22;3885;51.474;-2.576;2023-04-01T11:06:51;11.70;99.90
7686;DHT22;3885;51.474;-2.576;2023-04-01T11:18:59;11.90;99.90
7686;DHT22;3885;51.474;-2.576;2023-04-01T11:25:05;11.70;99.90
7686;DHT22;3885;51.474;-2.576;2023-04-01T11:27:48;11.70;99.90
7686;DHT22;3885;51.474;-2.576;2023-04-01T11:30:29;11.60;99.90
7686;DHT22;3885;51.474;-2.576;2023-04-01T11:35:50;11.60;99.90
7686;DHT22;3885;51.474;-2.576;2023-04-01T11:40:59;11.40;99.90
7686;DHT22;3885;51.474;-2.576;2023-04-01T11:43:34;11.40;99.90
7686;DHT22;3885;51.474;-2.576;2023-04-01T11:46:08;11.40;99.90
7686;DHT22;3885;51.474;-2.576;2023-04-01T11:48:44;11.50;99.90
7686;DHT22;3885;51.474;-2.576;2023-04-01T11:54:32;12.00;99.90
7686;DHT22;3885;51.474;-2.576;2023-04-01T11:57:21;12.10;99.90
7686;DHT22;3885;51.474;-2.576;2023-04-01T12:00:03;12.00;99.90
7686;DHT22;3885;51.474;-2.576;2023-04-01T12:05:26;11.70;99.90
7686;DHT22;3885;51.474;-2.576;2023-04-01T12:08:12;11.60;99.90
7686;DHT22;3885;51.474;-2.576;2023-04-01T12:10:48;11.40;99.90
7686;DHT22;3885;51.474;-2.576;2023-04-01T12:13:29;11.20;99.90
7686;DHT22;3885;51.474;-2.576;2023-04-01T12:16:17;11.10;99.90
7686;DHT22;3885;51.474;-2.576;2023-04-01T12:18:52;11.00;99.90
7686;DHT22;3885;51.474;-2.576;2023-04-01T12:24:09;11.20;99.90
7686;DHT22;3885;51.474;-2.576;2023-04-01T12:26:53;11.40;99.90
7686;DHT22;3885;51.474;-2.576;2023-04-01T12:29:41;11.60;99.90
7686;DHT22;3885;51.474;-2.576;2023-04-01T12:32:18;11.40;99.90
7686;DHT22;3885;51.474;-2.576;2023-04-01T12:37:47;11.40;99.90
7686;DHT22;3885;51.474;-2.576;2023-04-01T12:40:44;11.60;99.90
7686;DHT22;3885;51.474;-2.576;2023-04-01T12:43:48;11.80;99.90
7686;DHT22;3885;51.474;-2.576;2023-04-01T12:46:23;11.70;99.90
7686;DHT22;3885;51.474;-2.576;2023-04-01T12:52:04;11.90;99.90
7686;DHT22;3885;51.474;-2.576;2023-04-01T13:00:27;11.80;99.90
7686;DHT22;3885;51.474;-2.576;2023-04-01T13:03:09;11.70;99.90
7686;DHT22;3885;51.474;-2.576;2023-04-01T13:08:30;11.70;99.90
7686;DHT22;3885;51.474;-2.576;2023-04-01T13:11:08;11.90;99.90
7686;DHT22;3885;51.474;-2.576;2023-04-01T13:14:08;12.00;99.90
7686;DHT22;3885;51.474;-2.576;2023-04-01T13:16:42;12.10;99.90
7686;DHT22;3885;51.474;-2.576;2023-04-01T13:19:16;12.20;99.90
7686;DHT22;3885;51.474;-2.576;2023-04-01T13:21:54;12.10;99.90
7686;DHT22;3885;51.474;-2.576;2023-04-01T13:24:41;12.10;99.90
7686;DHT22;3885;51.474;-2.576;2023-04-01T13:27:16;12.20;99.90
7686;DHT22;3885;51.474;-2.576;2023-04-01T13:29:59;12.30;99.90
7686;DHT22;3885;51.474;-2.576;2023-04-01T13:32:34;12.40;99.90
7686;DHT22;3885;51.474;-2.576;2023-04-01T13:35:27;12.40;99.90
7686;DHT22;3885;51.474;-2.576;2023-04-01T13:38:32;12.30;99.90
7686;DHT22;3885;51.474;-2.576;2023-04-01T13:41:13;12.40;99.90
7686;DHT22;3885;51.474;-2.576;2023-04-01T13:43:49;12.40;99.90
7686;DHT22;3885;51.474;-2.576;2023-04-01T13:46:41;12.50;99.90
7686;DHT22;3885;51.474;-2.576;2023-04-01T13:49:38;12.50;99.90
7686;DHT22;3885;51.474;-2.576;2023-04-01T13:52:27;12.60;99.90
7686;DHT22;3885;51.474;-2.576;2023-04-01T13:55:21;12.80;99.90
7686;DHT22;3885;51.474;-2.576;2023-04-01T13:58:10;13.00;99.90
7686;DHT22;3885;51.474;-2.576;2023-04-01T14:00:49;13.20;99.90
7686;DHT22;3885;51.474;-2.576;2023-04-01T14:03:32;13.40;99.90
7686;DHT22;3885;51.474;-2.576;2023-04-01T14:06:09;13.20;99.90
7686;DHT22;3885;51.474;-2.576;2023-04-01T14:09:01;13.20;99.90
7686;DHT22;3885;51.474;-2.576;2023-04-01T14:14:11;13.10;99.90
7686;DHT22;3885;51.474;-2.576;2023-04-01T14:19:52;12.70;99.90
7686;DHT22;3885;51.474;-2.576;2023-04-01T14:25:17;12.50;99.90
7686;DHT22;3885;51.474;-2.576;2023-04-01T14:27:56;12.60;99.90
7686;DHT22;3885;51.474;-2.576;2023-04-01T14:33:31;12.80;99.90
7686;DHT22;3885;51.474;-2.576;2023-04-01T14:38:58;13.00;99.90
7686;DHT22;3885;51.474;-2.576;2023-04-01T14:41:35;13.30;99.90
7686;DHT22;3885;51.474;-2.576;2023-04-01T14:52:14;13.10;99.90
7686;DHT22;3885;51.474;-2.576;2023-04-01T14:54:44;13.10;99.90
7686;DHT22;3885;51.474;-2.576;2023-04-01T15:02:33;13.20;99.90
7686;DHT22;3885;51.474;-2.576;2023-04-01T15:05:14;13.30;99.90
7686;DHT22;3885;51.474;-2.576;2023-04-01T15:10:42;13.50;99.90
7686;DHT22;3885;51.474;-2.576;2023-04-01T15:13:13;13.60;99.90
7686;DHT22;3885;51.474;-2.576;2023-04-01T15:21:01;13.90;99.90
7686;DHT22;3885;51.474;-2.576;2023-04-01T15:23:43;14.00;99.90
7686;DHT22;3885;51.474;-2.576;2023-04-01T15:26:54;14.00;99.90
7686;DHT22;3885;51.474;-2.576;2023-04-01T15:29:42;14.00;99.90
7686;DHT22;3885;51.474;-2.576;2023-04-01T15:32:17;13.90;99.90
7686;DHT22;3885;51.474;-2.576;2023-04-01T15:34:50;14.00;99.90
7686;DHT22;3885;51.474;-2.576;2023-04-01T15:37:27;13.90;99.90
7686;DHT22;3885;51.474;-2.576;2023-04-01T15:40:14;13.70;99.90
7686;DHT22;3885;51.474;-2.576;2023-04-01T15:43:05;13.60;99.90
7686;DHT22;3885;51.474;-2.576;2023-04-01T15:45:43;13.50;99.90
7686;DHT22;3885;51.474;-2.576;2023-04-01T15:54:23;13.50;99.90
7686;DHT22;3885;51.474;-2.576;2023-04-01T15:57:03;13.60;99.90
7686;DHT22;3885;51.474;-2.576;2023-04-01T15:59:57;13.60;99.90
7686;DHT22;3885;51.474;-2.576;2023-04-01T16:02:32;13.60;99.90
7686;DHT22;3885;51.474;-2.576;2023-04-01T16:05:06;13.60;99.90
7686;DHT22;3885;51.474;-2.576;2023-04-01T16:07:54;13.50;99.90
7686;DHT22;3885;51.474;-2.576;2023-04-01T16:13:42;13.50;99.90
7686;DHT22;3885;51.474;-2.576;2023-04-01T16:16:19;13.60;99.90
7686;DHT22;3885;51.474;-2.576;2023-04-01T16:21:38;13.80;99.90
7686;DHT22;3885;51.474;-2.576;2023-04-01T16:26:47;13.90;99.90
7686;DHT22;3885;51.474;-2.576;2023-04-01T16:29:27;13.80;99.90
7686;DHT22;3885;51.474;-2.576;2023-04-01T16:32:12;13.80;99.90
7686;DHT22;3885;51.474;-2.576;2023-04-01T16:34:44;13.70;99.90
7686;DHT22;3885;51.474;-2.576;2023-04-01T16:37:17;13.70;99.90
7686;DHT22;3885;51.474;-2.576;2023-04-01T16:39:52;13.70;99.90
7686;DHT22;3885;51.474;-2.576;2023-04-01T16:42:28;13.60;99.90
7686;DHT22;3885;51.474;-2.576;2023-04-01T16:45:06;13.50;99.90
7686;DHT22;3885;51.474;-2.576;2023-04-01T16:47:47;13.40;99.90
7686;DHT22;3885;51.474;-2.576;2023-04-01T16:50:20;13.30;99.90
7686;DHT22;3885;51.474;-2.576;2023-04-01T16:58:01;12.90;99.90
7686;DHT22;3885;51.474;-2.576;2023-04-01T17:03:12;12.90;99.90
7686;DHT22;3885;51.474;-2.576;2023-04-01T17:05:54;13.00;99.90
7686;DHT22;3885;51.474;-2.576;2023-04-01T17:13:36;13.00;99.90
7686;DHT22;3885;51.474;-2.576;2023-04-01T17:16:27;13.00;99.90
7686;DHT22;3885;51.474;-2.576;2023-04-01T17:19:02;12.90;99.90
7686;DHT22;3885;51.474;-2.576;2023-04-01T17:21:45;12.90;99.90
7686;DHT22;3885;51.474;-2.576;2023-04-01T17:24:25;12.80;99.90
7686;DHT22;3885;51.474;-2.576;2023-04-01T17:27:01;12.70;99.90
7686;DHT22;3885;51.474;-2.576;2023-04-01T17:29:35;12.70;99.90
7686;DHT22;3885;51.474;-2.576;2023-04-01T17:32:13;12.50;99.90
7686;DHT22;3885;51.474;-2.576;2023-04-01T17:34:52;12.60;99.90
7686;DHT22;3885;51.474;-2.576;2023-04-01T17:37:32;12.50;99.90
7686;DHT22;3885;51.474;-2.576;2023-04-01T17:40:12;12.50;99.90
7686;DHT22;3885;51.474;-2.576;2023-04-01T17:42:48;12.40;99.90
7686;DHT22;3885;51.474;-2.576;2023-04-01T17:45:22;12.30;99.90
7686;DHT22;3885;51.474;-2.576;2023-04-01T17:48:00;12.30;99.90
7686;DHT22;3885;51.474;-2.576;2023-04-01T17:50:37;12.30;99.90
7686;DHT22;3885;51.474;-2.576;2023-04-01T17:53:29;12.30;99.90
7686;DHT22;3885;51.474;-2.576;2023-04-01T17:56:14;12.20;99.90
7686;DHT22;3885;51.474;-2.576;2023-04-01T17:58:46;12.30;99.90
7686;DHT22;3885;51.474;-2.576;2023-04-01T18:01:35;12.20;99.90
7686;DHT22;3885;51.474;-2.576;2023-04-01T18:04:24;12.20;99.90
7686;DHT22;3885;51.474;-2.576;2023-04-01T18:07:14;12.10;99.90
7686;DHT22;3885;51.474;-2.576;2023-04-01T18:09:55;12.10;99.90
7686;DHT22;3885;51.474;-2.576;2023-04-01T18:12:31;12.00;99.90
7686;DHT22;3885;51.474;-2.576;2023-04-01T18:15:08;11.90;99.90
7686;DHT22;3885;51.474;-2.576;2023-04-01T18:17:46;11.90;99.90
7686;DHT22;3885;51.474;-2.576;2023-04-01T18:20:31;11.90;99.90
7686;DHT22;3885;51.474;-2.576;2023-04-01T18:23:04;11.90;99.90
7686;DHT22;3885;51.474;-2.576;2023-04-01T18:25:40;11.90;99.90
7686;DHT22;3885;51.474;-2.576;2023-04-01T18:28:22;11.80;99.90
7686;DHT22;3885;51.474;-2.576;2023-04-01T18:30:54;11.80;99.90
7686;DHT22;3885;51.474;-2.576;2023-04-01T18:33:25;11.70;99.90
7686;DHT22;3885;51.474;-2.576;2023-04-01T18:36:02;11.70;99.90
7686;DHT22;3885;51.474;-2.576;2023-04-01T18:38:36;11.70;99.90
7686;DHT22;3885;51.474;-2.576;2023-04-01T18:41:13;11.70;99.90
7686;DHT22;3885;51.474;-2.576;2023-04-01T18:43:48;11.50;99.90
7686;DHT22;3885;51.474;-2.576;2023-04-01T18:46:26;11.40;99.90
7686;DHT22;3885;51.474;-2.576;2023-04-01T18:49:00;11.40;99.90
7686;DHT22;3885;51.474;-2.576;2023-04-01T18:51:41;11.40;99.90
7686;DHT22;3885;51.474;-2.576;2023-04-01T18:54:15;11.40;99.90
7686;DHT22;3885;51.474;-2.576;2023-04-01T18:56:45;11.30;99.90
7686;DHT22;3885;51.474;-2.576;2023-04-01T18:59:18;11.20;99.90
7686;DHT22;3885;51.474;-2.576;2023-04-01T19:01:56;11.20;99.90
7686;DHT22;3885;51.474;-2.576;2023-04-01T19:04:31;11.10;99.90
7686;DHT22;3885;51.474;-2.576;2023-04-01T19:07:17;10.90;99.90
7686;DHT22;3885;51.474;-2.576;2023-04-01T19:09:46;10.80;99.90
7686;DHT22;3885;51.474;-2.576;2023-04-01T19:12:27;10.80;99.90
7686;DHT22;3885;51.474;-2.576;2023-04-01T19:17:44;10.80;99.90
7686;DHT22;3885;51.474;-2.576;2023-04-01T19:20:20;10.80;99.90
7686;DHT22;3885;51.474;-2.576;2023-04-01T19:23:23;10.70;99.90
7686;DHT22;3885;51.474;-2.576;2023-04-01T19:25:55;10.60;99.90
7686;DHT22;3885;51.474;-2.576;2023-04-01T19:28:32;10.50;99.90
7686;DHT22;3885;51.474;-2.576;2023-04-01T19:31:11;10.60;99.90
7686;DHT22;3885;51.474;-2.576;2023-04-01T19:33:51;10.50;99.90
7686;DHT22;3885;51.474;-2.576;2023-04-01T19:36:27;10.50;99.90
7686;DHT22;3885;51.474;-2.576;2023-04-01T19:39:06;10.50;99.90
7686;DHT22;3885;51.474;-2.576;2023-04-01T19:41:40;10.50;99.90
7686;DHT22;3885;51.474;-2.576;2023-04-01T19:44:24;10.50;99.90
7686;DHT22;3885;51.474;-2.576;2023-04-01T19:46:56;10.50;99.90
7686;DHT22;3885;51.474;-2.576;2023-04-01T19:49:38;10.40;99.90
7686;DHT22;3885;51.474;-2.576;2023-04-01T19:54:45;10.30;99.90
7686;DHT22;3885;51.474;-2.576;2023-04-01T19:57:21;10.20;99.90
7686;DHT22;3885;51.474;-2.576;2023-04-01T19:59:56;10.20;99.90
7686;DHT22;3885;51.474;-2.576;2023-04-01T20:02:53;10.10;99.90
7686;DHT22;3885;51.474;-2.576;2023-04-01T20:05:31;10.10;99.90
7686;DHT22;3885;51.474;-2.576;2023-04-01T20:10:35;10.00;99.90
7686;DHT22;3885;51.474;-2.576;2023-04-01T20:13:08;10.10;99.90
7686;DHT22;3885;51.474;-2.576;2023-04-01T20:18:14;10.00;99.90
7686;DHT22;3885;51.474;-2.576;2023-04-01T20:20:53;10.00;99.90
7686;DHT22;3885;51.474;-2.576;2023-04-01T20:23:33;10.00;99.90
7686;DHT22;3885;51.474;-2.576;2023-04-01T20:26:08;10.10;99.90
7686;DHT22;3885;51.474;-2.576;2023-04-01T20:28:43;10.10;99.90
7686;DHT22;3885;51.474;-2.576;2023-04-01T20:31:26;10.10;99.90
7686;DHT22;3885;51.474;-2.576;2023-04-01T20:34:18;10.10;99.90
7686;DHT22;3885;51.474;-2.576;2023-04-01T20:37:00;10.10;99.90
7686;DHT22;3885;51.474;-2.576;2023-04-01T20:40:02;10.10;99.90
7686;DHT22;3885;51.474;-2.576;2023-04-01T20:42:54;10.10;99.90